sensor_id;sensor_type;location;lat;lon;timestamp;P1;durP1;ratioP1;P2;durP2;ratioP2
53052;SDS011;38934;52.690;6.184;2023-12-14T00:00:27;17.15;;;10.40;;
53052;SDS011;38934;52.690;6.184;2023-12-14T00:02:52;15.25;;;10.35;;
53052;SDS011;38934;52.690;6.184;2023-12-14T00:05:18;15.40;;;10.35;;
53052;SDS011;38934;52.690;6.184;2023-12-14T00:07:44;15.82;;;10.73;;
53052;SDS011;38934;52.690;6.184;2023-12-14T00:10:10;15.70;;;9.70;;
53052;SDS011;38934;52.690;6.184;2023-12-14T00:12:37;16.17;;;10.85;;
53052;SDS011;38934;52.690;6.184;2023-12-14T00:15:03;15.65;;;10.43;;
53052;SDS011;38934;52.690;6.184;2023-12-14T00:17:29;16.10;;;10.50;;
53052;SDS011;38934;52.690;6.184;2023-12-14T00:19:55;14.05;;;9.88;;
53052;SDS011;38934;52.690;6.184;2023-12-14T00:22:20;13.80;;;9.95;;
53052;SDS011;38934;52.690;6.184;2023-12-14T00:24:46;16.23;;;9.80;;
53052;SDS011;38934;52.690;6.184;2023-12-14T00:27:13;15.38;;;10.15;;
53052;SDS011;38934;52.690;6.184;2023-12-14T00:29:39;15.63;;;10.27;;
53052;SDS011;38934;52.690;6.184;2023-12-14T00:32:06;16.00;;;10.90;;
53052;SDS011;38934;52.690;6.184;2023-12-14T00:34:32;14.30;;;10.43;;
53052;SDS011;38934;52.690;6.184;2023-12-14T00:36:57;15.35;;;10.27;;
53052;SDS011;38934;52.690;6.184;2023-12-14T00:39:23;15.90;;;10.98;;
53052;SDS011;38934;52.690;6.184;2023-12-14T00:41:49;15.55;;;9.70;;
53052;SDS011;38934;52.690;6.184;2023-12-14T00:44:14;14.52;;;10.65;;
53052;SDS011;38934;52.690;6.184;2023-12-14T00:46:40;16.10;;;10.65;;
53052;SDS011;38934;52.690;6.184;2023-12-14T00:49:06;15.48;;;10.57;;
53052;SDS011;38934;52.690;6.184;2023-12-14T00:51:32;13.90;;;9.63;;
53052;SDS011;38934;52.690;6.184;2023-12-14T00:53:58;15.75;;;9.85;;
53052;SDS011;38934;52.690;6.184;2023-12-14T00:56:23;14.07;;;9.52;;
53052;SDS011;38934;52.690;6.184;2023-12-14T00:58:49;14.80;;;10.38;;
53052;SDS011;38934;52.690;6.184;2023-12-14T01:01:15;13.98;;;9.40;;
53052;SDS011;38934;52.690;6.184;2023-12-14T01:03:40;15.88;;;10.40;;
53052;SDS011;38934;52.690;6.184;2023-12-14T01:06:06;15.43;;;10.25;;
53052;SDS011;38934;52.690;6.184;2023-12-14T01:08:32;13.93;;;9.13;;
53052;SDS011;38934;52.690;6.184;2023-12-14T01:11:03;13.75;;;9.85;;
53052;SDS011;38934;52.690;6.184;2023-12-14T01:13:28;13.13;;;9.57;;
53052;SDS011;38934;52.690;6.184;2023-12-14T01:15:54;14.20;;;8.18;;
53052;SDS011;38934;52.690;6.184;2023-12-14T01:18:20;13.43;;;9.30;;
53052;SDS011;38934;52.690;6.184;2023-12-14T01:20:45;13.80;;;9.60;;
53052;SDS011;38934;52.690;6.184;2023-12-14T01:23:12;14.77;;;9.43;;
53052;SDS011;38934;52.690;6.184;2023-12-14T01:25:37;13.50;;;9.00;;
53052;SDS011;38934;52.690;6.184;2023-12-14T01:28:03;13.85;;;9.30;;
53052;SDS011;38934;52.690;6.184;2023-12-14T01:30:29;12.80;;;9.02;;
53052;SDS011;38934;52.690;6.184;2023-12-14T01:32:54;14.35;;;10.18;;
53052;SDS011;38934;52.690;6.184;2023-12-14T01:35:23;15.15;;;9.45;;
53052;SDS011;38934;52.690;6.184;2023-12-14T01:37:49;13.88;;;9.73;;
53052;SDS011;38934;52.690;6.184;2023-12-14T01:40:14;15.98;;;9.27;;
53052;SDS011;38934;52.690;6.184;2023-12-14T01:42:43;15.35;;;9.65;;
53052;SDS011;38934;52.690;6.184;2023-12-14T01:45:09;14.70;;;9.52;;
53052;SDS011;38934;52.690;6.184;2023-12-14T01:47:35;16.95;;;9.88;;
53052;SDS011;38934;52.690;6.184;2023-12-14T01:50:01;15.18;;;10.20;;
53052;SDS011;38934;52.690;6.184;2023-12-14T01:52:27;14.10;;;9.73;;
53052;SDS011;38934;52.690;6.184;2023-12-14T01:54:57;17.20;;;9.77;;
53052;SDS011;38934;52.690;6.184;2023-12-14T01:57:24;15.48;;;10.27;;
53052;SDS011;38934;52.690;6.184;2023-12-14T01:59:50;13.95;;;9.48;;
53052;SDS011;38934;52.690;6.184;2023-12-14T02:02:15;17.77;;;10.15;;
53052;SDS011;38934;52.690;6.184;2023-12-14T02:04:41;16.33;;;10.40;;
53052;SDS011;38934;52.690;6.184;2023-12-14T02:07:07;16.35;;;10.73;;
53052;SDS011;38934;52.690;6.184;2023-12-14T02:09:32;17.05;;;10.32;;
53052;SDS011;38934;52.690;6.184;2023-12-14T02:11:58;16.65;;;9.93;;
53052;SDS011;38934;52.690;6.184;2023-12-14T02:14:24;15.50;;;9.40;;
53052;SDS011;38934;52.690;6.184;2023-12-14T02:16:49;15.50;;;9.77;;
53052;SDS011;38934;52.690;6.184;2023-12-14T02:19:15;17.92;;;10.30;;
53052;SDS011;38934;52.690;6.184;2023-12-14T02:21:42;16.42;;;9.85;;
53052;SDS011;38934;52.690;6.184;2023-12-14T02:24:07;15.48;;;9.48;;
53052;SDS011;38934;52.690;6.184;2023-12-14T02:26:33;18.58;;;9.90;;
53052;SDS011;38934;52.690;6.184;2023-12-14T02:28:59;16.38;;;10.02;;
53052;SDS011;38934;52.690;6.184;2023-12-14T02:31:24;16.52;;;10.60;;
53052;SDS011;38934;52.690;6.184;2023-12-14T02:33:50;14.35;;;9.80;;
53052;SDS011;38934;52.690;6.184;2023-12-14T02:36:16;16.83;;;9.98;;
53052;SDS011;38934;52.690;6.184;2023-12-14T02:38:41;17.27;;;9.88;;
53052;SDS011;38934;52.690;6.184;2023-12-14T02:41:07;15.95;;;9.77;;
53052;SDS011;38934;52.690;6.184;2023-12-14T02:43:32;17.45;;;10.43;;
53052;SDS011;38934;52.690;6.184;2023-12-14T02:45:59;17.00;;;10.70;;
53052;SDS011;38934;52.690;6.184;2023-12-14T02:48:27;15.63;;;9.30;;
53052;SDS011;38934;52.690;6.184;2023-12-14T02:50:54;16.23;;;9.75;;
53052;SDS011;38934;52.690;6.184;2023-12-14T02:53:20;15.38;;;9.20;;
53052;SDS011;38934;52.690;6.184;2023-12-14T02:55:46;15.10;;;9.07;;
53052;SDS011;38934;52.690;6.184;2023-12-14T02:58:11;14.23;;;9.02;;
53052;SDS011;38934;52.690;6.184;2023-12-14T03:00:37;13.85;;;9.10;;
53052;SDS011;38934;52.690;6.184;2023-12-14T03:03:03;14.20;;;9.05;;
53052;SDS011;38934;52.690;6.184;2023-12-14T03:05:28;15.32;;;8.85;;
53052;SDS011;38934;52.690;6.184;2023-12-14T03:07:54;15.02;;;8.77;;
53052;SDS011;38934;52.690;6.184;2023-12-14T03:10:20;13.73;;;8.80;;
53052;SDS011;38934;52.690;6.184;2023-12-14T03:12:45;13.27;;;8.20;;
53052;SDS011;38934;52.690;6.184;2023-12-14T03:15:11;13.32;;;8.95;;
53052;SDS011;38934;52.690;6.184;2023-12-14T03:17:37;16.30;;;9.23;;
53052;SDS011;38934;52.690;6.184;2023-12-14T03:20:02;12.18;;;8.13;;
53052;SDS011;38934;52.690;6.184;2023-12-14T03:22:30;10.93;;;7.57;;
53052;SDS011;38934;52.690;6.184;2023-12-14T03:24:56;12.15;;;7.75;;
53052;SDS011;38934;52.690;6.184;2023-12-14T03:27:21;13.07;;;8.05;;
53052;SDS011;38934;52.690;6.184;2023-12-14T03:29:48;13.20;;;8.10;;
53052;SDS011;38934;52.690;6.184;2023-12-14T03:32:14;10.45;;;7.25;;
53052;SDS011;38934;52.690;6.184;2023-12-14T03:34:39;14.52;;;8.30;;
53052;SDS011;38934;52.690;6.184;2023-12-14T03:37:08;13.48;;;7.80;;
53052;SDS011;38934;52.690;6.184;2023-12-14T03:39:34;14.38;;;8.23;;
53052;SDS011;38934;52.690;6.184;2023-12-14T03:42:00;12.48;;;7.40;;
53052;SDS011;38934;52.690;6.184;2023-12-14T03:44:25;12.07;;;7.88;;
53052;SDS011;38934;52.690;6.184;2023-12-14T03:46:51;11.70;;;7.60;;
53052;SDS011;38934;52.690;6.184;2023-12-14T03:49:16;12.57;;;8.07;;
53052;SDS011;38934;52.690;6.184;2023-12-14T03:51:42;12.32;;;8.43;;
53052;SDS011;38934;52.690;6.184;2023-12-14T03:54:08;11.00;;;7.35;;
53052;SDS011;38934;52.690;6.184;2023-12-14T03:56:33;10.48;;;7.07;;
53052;SDS011;38934;52.690;6.184;2023-12-14T03:58:59;10.20;;;6.68;;
53052;SDS011;38934;52.690;6.184;2023-12-14T04:01:37;10.45;;;6.80;;
53052;SDS011;38934;52.690;6.184;2023-12-14T04:04:05;11.98;;;7.25;;
53052;SDS011;38934;52.690;6.184;2023-12-14T04:06:31;11.40;;;7.68;;
53052;SDS011;38934;52.690;6.184;2023-12-14T04:08:56;12.13;;;7.20;;
53052;SDS011;38934;52.690;6.184;2023-12-14T04:11:22;11.70;;;7.72;;
53052;SDS011;38934;52.690;6.184;2023-12-14T04:13:47;11.82;;;7.60;;
53052;SDS011;38934;52.690;6.184;2023-12-14T04:16:15;11.55;;;7.55;;
53052;SDS011;38934;52.690;6.184;2023-12-14T04:18:44;12.85;;;7.40;;
53052;SDS011;38934;52.690;6.184;2023-12-14T04:21:10;12.23;;;7.43;;
53052;SDS011;38934;52.690;6.184;2023-12-14T04:23:35;12.10;;;7.70;;
53052;SDS011;38934;52.690;6.184;2023-12-14T04:26:01;13.00;;;7.68;;
53052;SDS011;38934;52.690;6.184;2023-12-14T04:28:26;13.77;;;8.43;;
53052;SDS011;38934;52.690;6.184;2023-12-14T04:30:52;12.35;;;7.63;;
53052;SDS011;38934;52.690;6.184;2023-12-14T04:33:18;13.70;;;8.20;;
53052;SDS011;38934;52.690;6.184;2023-12-14T04:35:43;13.18;;;8.10;;
53052;SDS011;38934;52.690;6.184;2023-12-14T04:38:09;13.98;;;8.65;;
53052;SDS011;38934;52.690;6.184;2023-12-14T04:40:35;12.98;;;8.85;;
53052;SDS011;38934;52.690;6.184;2023-12-14T04:43:00;13.32;;;8.40;;
53052;SDS011;38934;52.690;6.184;2023-12-14T04:45:26;13.13;;;8.43;;
53052;SDS011;38934;52.690;6.184;2023-12-14T04:47:52;13.65;;;8.30;;
53052;SDS011;38934;52.690;6.184;2023-12-14T04:50:17;13.27;;;8.73;;
53052;SDS011;38934;52.690;6.184;2023-12-14T04:52:43;16.40;;;9.20;;
53052;SDS011;38934;52.690;6.184;2023-12-14T04:55:08;14.48;;;9.40;;
53052;SDS011;38934;52.690;6.184;2023-12-14T04:57:34;13.57;;;8.68;;
53052;SDS011;38934;52.690;6.184;2023-12-14T05:00:01;15.25;;;9.45;;
53052;SDS011;38934;52.690;6.184;2023-12-14T05:02:27;15.90;;;9.05;;
53052;SDS011;38934;52.690;6.184;2023-12-14T05:04:53;14.77;;;9.25;;
53052;SDS011;38934;52.690;6.184;2023-12-14T05:07:18;20.17;;;10.00;;
53052;SDS011;38934;52.690;6.184;2023-12-14T05:09:44;16.00;;;9.15;;
53052;SDS011;38934;52.690;6.184;2023-12-14T05:12:10;15.27;;;9.30;;
53052;SDS011;38934;52.690;6.184;2023-12-14T05:14:35;16.52;;;9.35;;
53052;SDS011;38934;52.690;6.184;2023-12-14T05:17:01;14.00;;;9.50;;
53052;SDS011;38934;52.690;6.184;2023-12-14T05:19:27;17.75;;;10.13;;
53052;SDS011;38934;52.690;6.184;2023-12-14T05:21:52;16.08;;;8.88;;
53052;SDS011;38934;52.690;6.184;2023-12-14T05:24:19;16.08;;;9.25;;
53052;SDS011;38934;52.690;6.184;2023-12-14T05:26:45;18.48;;;9.88;;
53052;SDS011;38934;52.690;6.184;2023-12-14T05:29:10;16.23;;;9.02;;
53052;SDS011;38934;52.690;6.184;2023-12-14T05:31:38;15.13;;;9.07;;
53052;SDS011;38934;52.690;6.184;2023-12-14T05:34:04;14.90;;;8.50;;
53052;SDS011;38934;52.690;6.184;2023-12-14T05:36:29;17.70;;;9.02;;
53052;SDS011;38934;52.690;6.184;2023-12-14T05:38:55;18.17;;;10.18;;
53052;SDS011;38934;52.690;6.184;2023-12-14T05:41:22;17.20;;;8.85;;
53052;SDS011;38934;52.690;6.184;2023-12-14T05:43:48;16.80;;;8.88;;
53052;SDS011;38934;52.690;6.184;2023-12-14T05:46:23;13.82;;;8.57;;
53052;SDS011;38934;52.690;6.184;2023-12-14T05:48:49;17.63;;;8.82;;
53052;SDS011;38934;52.690;6.184;2023-12-14T05:51:34;13.50;;;8.18;;
53052;SDS011;38934;52.690;6.184;2023-12-14T05:54:00;13.68;;;7.95;;
53052;SDS011;38934;52.690;6.184;2023-12-14T05:56:26;11.63;;;7.53;;
53052;SDS011;38934;52.690;6.184;2023-12-14T05:58:52;10.40;;;7.10;;
53052;SDS011;38934;52.690;6.184;2023-12-14T06:01:17;13.10;;;7.82;;
53052;SDS011;38934;52.690;6.184;2023-12-14T06:03:44;14.77;;;8.30;;
53052;SDS011;38934;52.690;6.184;2023-12-14T06:06:10;16.25;;;8.77;;
53052;SDS011;38934;52.690;6.184;2023-12-14T06:08:36;12.07;;;7.82;;
53052;SDS011;38934;52.690;6.184;2023-12-14T06:11:02;14.85;;;8.85;;
53052;SDS011;38934;52.690;6.184;2023-12-14T06:13:30;13.52;;;8.40;;
53052;SDS011;38934;52.690;6.184;2023-12-14T06:15:56;14.20;;;7.65;;
53052;SDS011;38934;52.690;6.184;2023-12-14T06:18:22;14.45;;;8.48;;
53052;SDS011;38934;52.690;6.184;2023-12-14T06:20:47;15.65;;;8.38;;
53052;SDS011;38934;52.690;6.184;2023-12-14T06:23:14;17.55;;;9.45;;
53052;SDS011;38934;52.690;6.184;2023-12-14T06:25:39;13.13;;;8.88;;
53052;SDS011;38934;52.690;6.184;2023-12-14T06:28:05;13.90;;;8.45;;
53052;SDS011;38934;52.690;6.184;2023-12-14T06:30:30;14.90;;;8.48;;
53052;SDS011;38934;52.690;6.184;2023-12-14T06:32:56;15.88;;;9.13;;
53052;SDS011;38934;52.690;6.184;2023-12-14T06:35:22;16.23;;;8.75;;
53052;SDS011;38934;52.690;6.184;2023-12-14T06:37:47;17.02;;;7.95;;
53052;SDS011;38934;52.690;6.184;2023-12-14T06:40:13;13.65;;;8.70;;
53052;SDS011;38934;52.690;6.184;2023-12-14T06:42:39;17.95;;;8.75;;
53052;SDS011;38934;52.690;6.184;2023-12-14T06:45:05;13.70;;;8.27;;
53052;SDS011;38934;52.690;6.184;2023-12-14T06:47:31;17.52;;;9.23;;
53052;SDS011;38934;52.690;6.184;2023-12-14T06:49:56;14.20;;;8.40;;
53052;SDS011;38934;52.690;6.184;2023-12-14T06:52:22;16.42;;;9.32;;
53052;SDS011;38934;52.690;6.184;2023-12-14T06:54:48;17.02;;;9.15;;
53052;SDS011;38934;52.690;6.184;2023-12-14T06:57:13;17.10;;;9.38;;
53052;SDS011;38934;52.690;6.184;2023-12-14T06:59:39;15.65;;;8.95;;
53052;SDS011;38934;52.690;6.184;2023-12-14T07:02:05;15.82;;;8.30;;
53052;SDS011;38934;52.690;6.184;2023-12-14T07:04:32;18.35;;;9.25;;
53052;SDS011;38934;52.690;6.184;2023-12-14T07:06:57;18.58;;;9.32;;
53052;SDS011;38934;52.690;6.184;2023-12-14T07:09:23;18.10;;;8.95;;
53052;SDS011;38934;52.690;6.184;2023-12-14T07:11:49;17.63;;;9.00;;
53052;SDS011;38934;52.690;6.184;2023-12-14T07:14:15;16.05;;;9.32;;
53052;SDS011;38934;52.690;6.184;2023-12-14T07:16:41;16.30;;;8.75;;
53052;SDS011;38934;52.690;6.184;2023-12-14T07:19:07;15.88;;;9.30;;
53052;SDS011;38934;52.690;6.184;2023-12-14T07:21:33;16.95;;;9.23;;
53052;SDS011;38934;52.690;6.184;2023-12-14T07:23:58;19.42;;;9.80;;
53052;SDS011;38934;52.690;6.184;2023-12-14T07:26:24;14.32;;;8.93;;
53052;SDS011;38934;52.690;6.184;2023-12-14T07:28:52;19.42;;;8.85;;
53052;SDS011;38934;52.690;6.184;2023-12-14T07:31:18;15.98;;;8.73;;
53052;SDS011;38934;52.690;6.184;2023-12-14T07:33:45;14.77;;;9.40;;
53052;SDS011;38934;52.690;6.184;2023-12-14T07:36:11;15.88;;;8.68;;
53052;SDS011;38934;52.690;6.184;2023-12-14T07:38:36;13.48;;;9.07;;
53052;SDS011;38934;52.690;6.184;2023-12-14T07:41:02;15.40;;;9.30;;
53052;SDS011;38934;52.690;6.184;2023-12-14T07:43:28;13.30;;;8.68;;
53052;SDS011;38934;52.690;6.184;2023-12-14T07:45:54;13.73;;;8.63;;
53052;SDS011;38934;52.690;6.184;2023-12-14T07:48:19;16.25;;;9.00;;
53052;SDS011;38934;52.690;6.184;2023-12-14T07:50:45;12.93;;;8.32;;
53052;SDS011;38934;52.690;6.184;2023-12-14T07:53:23;14.57;;;9.25;;
53052;SDS011;38934;52.690;6.184;2023-12-14T07:55:52;16.30;;;8.43;;
53052;SDS011;38934;52.690;6.184;2023-12-14T07:58:23;13.77;;;8.13;;
53052;SDS011;38934;52.690;6.184;2023-12-14T08:01:12;16.10;;;9.20;;
53052;SDS011;38934;52.690;6.184;2023-12-14T08:03:37;16.80;;;8.20;;
53052;SDS011;38934;52.690;6.184;2023-12-14T08:08:59;16.38;;;9.02;;
53052;SDS011;38934;52.690;6.184;2023-12-14T08:11:28;18.35;;;8.68;;
53052;SDS011;38934;52.690;6.184;2023-12-14T08:13:54;16.10;;;8.95;;
53052;SDS011;38934;52.690;6.184;2023-12-14T08:16:27;19.70;;;9.55;;
53052;SDS011;38934;52.690;6.184;2023-12-14T08:18:56;19.67;;;10.60;;
53052;SDS011;38934;52.690;6.184;2023-12-14T08:21:23;20.98;;;10.32;;
53052;SDS011;38934;52.690;6.184;2023-12-14T08:23:49;21.30;;;11.57;;
53052;SDS011;38934;52.690;6.184;2023-12-14T08:26:15;20.98;;;10.48;;
53052;SDS011;38934;52.690;6.184;2023-12-14T08:28:41;20.85;;;10.00;;
53052;SDS011;38934;52.690;6.184;2023-12-14T08:31:07;19.20;;;9.57;;
53052;SDS011;38934;52.690;6.184;2023-12-14T08:33:34;17.25;;;9.95;;
53052;SDS011;38934;52.690;6.184;2023-12-14T08:36:00;22.75;;;10.70;;
53052;SDS011;38934;52.690;6.184;2023-12-14T08:38:26;23.55;;;11.35;;
53052;SDS011;38934;52.690;6.184;2023-12-14T08:40:51;20.45;;;10.48;;
53052;SDS011;38934;52.690;6.184;2023-12-14T08:43:17;19.40;;;10.27;;
53052;SDS011;38934;52.690;6.184;2023-12-14T08:45:43;19.02;;;10.07;;
53052;SDS011;38934;52.690;6.184;2023-12-14T08:48:08;17.63;;;10.05;;
53052;SDS011;38934;52.690;6.184;2023-12-14T08:50:34;17.13;;;10.13;;
53052;SDS011;38934;52.690;6.184;2023-12-14T08:53:00;18.33;;;10.15;;
53052;SDS011;38934;52.690;6.184;2023-12-14T08:55:26;18.77;;;11.25;;
53052;SDS011;38934;52.690;6.184;2023-12-14T08:57:52;18.77;;;10.82;;
53052;SDS011;38934;52.690;6.184;2023-12-14T09:00:18;17.75;;;10.60;;
53052;SDS011;38934;52.690;6.184;2023-12-14T09:02:44;23.45;;;10.93;;
53052;SDS011;38934;52.690;6.184;2023-12-14T09:05:14;20.88;;;10.93;;
53052;SDS011;38934;52.690;6.184;2023-12-14T09:07:41;24.27;;;10.93;;
53052;SDS011;38934;52.690;6.184;2023-12-14T09:10:07;19.23;;;10.70;;
53052;SDS011;38934;52.690;6.184;2023-12-14T09:12:33;18.85;;;10.10;;
53052;SDS011;38934;52.690;6.184;2023-12-14T09:14:59;20.05;;;10.70;;
53052;SDS011;38934;52.690;6.184;2023-12-14T09:17:25;21.05;;;11.02;;
53052;SDS011;38934;52.690;6.184;2023-12-14T09:19:57;20.70;;;11.35;;
53052;SDS011;38934;52.690;6.184;2023-12-14T09:22:26;24.02;;;11.02;;
53052;SDS011;38934;52.690;6.184;2023-12-14T09:24:52;22.58;;;11.23;;
53052;SDS011;38934;52.690;6.184;2023-12-14T09:27:17;18.60;;;10.45;;
53052;SDS011;38934;52.690;6.184;2023-12-14T09:29:43;21.48;;;10.93;;
53052;SDS011;38934;52.690;6.184;2023-12-14T09:32:09;19.77;;;10.40;;
53052;SDS011;38934;52.690;6.184;2023-12-14T09:34:34;23.88;;;10.90;;
53052;SDS011;38934;52.690;6.184;2023-12-14T09:37:00;22.27;;;10.80;;
53052;SDS011;38934;52.690;6.184;2023-12-14T09:39:26;19.33;;;10.63;;
53052;SDS011;38934;52.690;6.184;2023-12-14T09:41:53;20.33;;;10.75;;
53052;SDS011;38934;52.690;6.184;2023-12-14T09:44:30;22.20;;;11.23;;
53052;SDS011;38934;52.690;6.184;2023-12-14T09:46:57;24.10;;;10.48;;
53052;SDS011;38934;52.690;6.184;2023-12-14T09:49:25;20.25;;;10.70;;
53052;SDS011;38934;52.690;6.184;2023-12-14T09:51:54;18.33;;;9.95;;
53052;SDS011;38934;52.690;6.184;2023-12-14T09:54:20;19.63;;;10.55;;
53052;SDS011;38934;52.690;6.184;2023-12-14T09:56:46;22.75;;;11.20;;
53052;SDS011;38934;52.690;6.184;2023-12-14T09:59:12;19.00;;;10.30;;
53052;SDS011;38934;52.690;6.184;2023-12-14T10:01:38;20.52;;;11.32;;
53052;SDS011;38934;52.690;6.184;2023-12-14T10:06:40;22.33;;;11.13;;
53052;SDS011;38934;52.690;6.184;2023-12-14T10:09:07;19.58;;;12.10;;
53052;SDS011;38934;52.690;6.184;2023-12-14T10:11:41;18.90;;;11.32;;
53052;SDS011;38934;52.690;6.184;2023-12-14T10:14:18;17.90;;;10.48;;
53052;SDS011;38934;52.690;6.184;2023-12-14T10:16:49;23.35;;;12.57;;
53052;SDS011;38934;52.690;6.184;2023-12-14T10:19:16;20.23;;;10.45;;
53052;SDS011;38934;52.690;6.184;2023-12-14T10:21:48;19.63;;;10.15;;
53052;SDS011;38934;52.690;6.184;2023-12-14T10:24:15;20.27;;;10.20;;
53052;SDS011;38934;52.690;6.184;2023-12-14T10:26:41;16.98;;;10.32;;
53052;SDS011;38934;52.690;6.184;2023-12-14T10:29:10;18.35;;;10.75;;
53052;SDS011;38934;52.690;6.184;2023-12-14T10:31:36;19.55;;;10.60;;
53052;SDS011;38934;52.690;6.184;2023-12-14T10:34:05;18.65;;;10.85;;
53052;SDS011;38934;52.690;6.184;2023-12-14T10:36:31;23.38;;;11.70;;
53052;SDS011;38934;52.690;6.184;2023-12-14T10:38:58;18.40;;;10.07;;
53052;SDS011;38934;52.690;6.184;2023-12-14T10:41:24;20.75;;;11.05;;
53052;SDS011;38934;52.690;6.184;2023-12-14T10:43:51;18.50;;;11.18;;
53052;SDS011;38934;52.690;6.184;2023-12-14T10:46:21;21.02;;;11.30;;
53052;SDS011;38934;52.690;6.184;2023-12-14T10:48:49;18.60;;;10.40;;
53052;SDS011;38934;52.690;6.184;2023-12-14T10:51:17;20.83;;;10.77;;
53052;SDS011;38934;52.690;6.184;2023-12-14T10:53:45;18.95;;;10.07;;
53052;SDS011;38934;52.690;6.184;2023-12-14T10:56:14;18.38;;;10.38;;
53052;SDS011;38934;52.690;6.184;2023-12-14T10:58:45;21.83;;;11.73;;
53052;SDS011;38934;52.690;6.184;2023-12-14T11:01:15;22.35;;;10.85;;
53052;SDS011;38934;52.690;6.184;2023-12-14T11:03:43;17.00;;;10.40;;
53052;SDS011;38934;52.690;6.184;2023-12-14T11:09:08;18.48;;;9.80;;
53052;SDS011;38934;52.690;6.184;2023-12-14T11:14:11;16.45;;;9.82;;
53052;SDS011;38934;52.690;6.184;2023-12-14T11:16:38;19.52;;;10.23;;
53052;SDS011;38934;52.690;6.184;2023-12-14T11:21:46;17.50;;;10.13;;
53052;SDS011;38934;52.690;6.184;2023-12-14T11:24:12;16.05;;;10.10;;
53052;SDS011;38934;52.690;6.184;2023-12-14T11:26:39;15.73;;;9.73;;
53052;SDS011;38934;52.690;6.184;2023-12-14T11:29:06;18.45;;;10.40;;
53052;SDS011;38934;52.690;6.184;2023-12-14T11:31:32;17.27;;;10.82;;
53052;SDS011;38934;52.690;6.184;2023-12-14T11:33:59;16.90;;;9.88;;
53052;SDS011;38934;52.690;6.184;2023-12-14T11:36:26;16.15;;;10.43;;
53052;SDS011;38934;52.690;6.184;2023-12-14T11:38:52;16.38;;;10.60;;
53052;SDS011;38934;52.690;6.184;2023-12-14T11:41:20;16.88;;;10.98;;
53052;SDS011;38934;52.690;6.184;2023-12-14T11:43:46;17.92;;;11.15;;
53052;SDS011;38934;52.690;6.184;2023-12-14T11:46:14;19.85;;;11.07;;
53052;SDS011;38934;52.690;6.184;2023-12-14T11:48:40;15.05;;;8.98;;
53052;SDS011;38934;52.690;6.184;2023-12-14T11:51:09;15.13;;;9.55;;
53052;SDS011;38934;52.690;6.184;2023-12-14T11:53:35;14.15;;;9.27;;
53052;SDS011;38934;52.690;6.184;2023-12-14T11:56:05;18.02;;;10.40;;
53052;SDS011;38934;52.690;6.184;2023-12-14T11:58:31;15.60;;;9.30;;
53052;SDS011;38934;52.690;6.184;2023-12-14T12:01:10;16.25;;;9.65;;
53052;SDS011;38934;52.690;6.184;2023-12-14T12:03:37;19.80;;;9.55;;
53052;SDS011;38934;52.690;6.184;2023-12-14T12:06:02;14.95;;;9.10;;
53052;SDS011;38934;52.690;6.184;2023-12-14T12:08:28;16.30;;;9.88;;
53052;SDS011;38934;52.690;6.184;2023-12-14T12:10:56;15.20;;;9.00;;
53052;SDS011;38934;52.690;6.184;2023-12-14T12:13:22;15.77;;;9.38;;
53052;SDS011;38934;52.690;6.184;2023-12-14T12:15:48;15.13;;;9.52;;
53052;SDS011;38934;52.690;6.184;2023-12-14T12:18:14;15.43;;;9.20;;
53052;SDS011;38934;52.690;6.184;2023-12-14T12:20:44;14.15;;;9.00;;
53052;SDS011;38934;52.690;6.184;2023-12-14T12:23:10;16.63;;;9.40;;
53052;SDS011;38934;52.690;6.184;2023-12-14T12:25:35;16.52;;;10.10;;
53052;SDS011;38934;52.690;6.184;2023-12-14T12:28:01;15.38;;;10.30;;
53052;SDS011;38934;52.690;6.184;2023-12-14T12:30:29;16.15;;;10.25;;
53052;SDS011;38934;52.690;6.184;2023-12-14T12:32:54;16.27;;;9.75;;
53052;SDS011;38934;52.690;6.184;2023-12-14T12:35:21;17.55;;;9.88;;
53052;SDS011;38934;52.690;6.184;2023-12-14T12:37:48;17.42;;;9.93;;
53052;SDS011;38934;52.690;6.184;2023-12-14T12:40:23;15.50;;;9.82;;
53052;SDS011;38934;52.690;6.184;2023-12-14T12:42:54;17.83;;;9.43;;
53052;SDS011;38934;52.690;6.184;2023-12-14T12:45:20;14.52;;;9.02;;
53052;SDS011;38934;52.690;6.184;2023-12-14T12:47:47;15.90;;;9.35;;
53052;SDS011;38934;52.690;6.184;2023-12-14T12:50:13;17.10;;;10.30;;
53052;SDS011;38934;52.690;6.184;2023-12-14T12:52:39;15.48;;;9.20;;
53052;SDS011;38934;52.690;6.184;2023-12-14T12:55:07;15.15;;;9.30;;
53052;SDS011;38934;52.690;6.184;2023-12-14T12:57:34;16.23;;;9.70;;
53052;SDS011;38934;52.690;6.184;2023-12-14T13:00:00;13.90;;;9.68;;
53052;SDS011;38934;52.690;6.184;2023-12-14T13:02:26;13.10;;;8.32;;
53052;SDS011;38934;52.690;6.184;2023-12-14T13:04:51;14.13;;;9.13;;
53052;SDS011;38934;52.690;6.184;2023-12-14T13:07:18;16.92;;;9.15;;
53052;SDS011;38934;52.690;6.184;2023-12-14T13:09:44;15.73;;;8.20;;
53052;SDS011;38934;52.690;6.184;2023-12-14T13:12:09;11.45;;;8.02;;
53052;SDS011;38934;52.690;6.184;2023-12-14T13:14:35;14.13;;;8.27;;
53052;SDS011;38934;52.690;6.184;2023-12-14T13:17:01;16.67;;;9.07;;
53052;SDS011;38934;52.690;6.184;2023-12-14T13:19:27;14.63;;;8.70;;
53052;SDS011;38934;52.690;6.184;2023-12-14T13:21:53;16.10;;;9.30;;
53052;SDS011;38934;52.690;6.184;2023-12-14T13:24:21;15.60;;;9.07;;
53052;SDS011;38934;52.690;6.184;2023-12-14T13:26:48;14.48;;;9.25;;
53052;SDS011;38934;52.690;6.184;2023-12-14T13:29:13;13.77;;;8.55;;
53052;SDS011;38934;52.690;6.184;2023-12-14T13:31:39;14.32;;;8.60;;
53052;SDS011;38934;52.690;6.184;2023-12-14T13:34:05;15.95;;;8.50;;
53052;SDS011;38934;52.690;6.184;2023-12-14T13:36:30;15.18;;;9.10;;
53052;SDS011;38934;52.690;6.184;2023-12-14T13:38:56;12.85;;;9.13;;
53052;SDS011;38934;52.690;6.184;2023-12-14T13:41:22;15.27;;;8.85;;
53052;SDS011;38934;52.690;6.184;2023-12-14T13:43:48;16.55;;;9.80;;
53052;SDS011;38934;52.690;6.184;2023-12-14T13:46:14;15.13;;;9.00;;
53052;SDS011;38934;52.690;6.184;2023-12-14T13:48:39;15.65;;;9.18;;
53052;SDS011;38934;52.690;6.184;2023-12-14T13:51:06;15.57;;;9.05;;
53052;SDS011;38934;52.690;6.184;2023-12-14T13:53:33;19.25;;;9.80;;
53052;SDS011;38934;52.690;6.184;2023-12-14T13:55:58;17.27;;;9.05;;
53052;SDS011;38934;52.690;6.184;2023-12-14T13:58:24;15.05;;;9.15;;
53052;SDS011;38934;52.690;6.184;2023-12-14T14:00:50;36.08;;;23.50;;
53052;SDS011;38934;52.690;6.184;2023-12-14T14:03:15;18.85;;;11.75;;
53052;SDS011;38934;52.690;6.184;2023-12-14T14:05:41;17.92;;;9.73;;
53052;SDS011;38934;52.690;6.184;2023-12-14T14:08:09;16.63;;;9.75;;
53052;SDS011;38934;52.690;6.184;2023-12-14T14:10:34;18.67;;;9.65;;
53052;SDS011;38934;52.690;6.184;2023-12-14T14:13:00;19.17;;;9.77;;
53052;SDS011;38934;52.690;6.184;2023-12-14T14:15:26;15.10;;;9.30;;
53052;SDS011;38934;52.690;6.184;2023-12-14T14:17:52;13.63;;;9.10;;
53052;SDS011;38934;52.690;6.184;2023-12-14T14:20:19;13.40;;;8.98;;
53052;SDS011;38934;52.690;6.184;2023-12-14T14:22:45;18.30;;;10.02;;
53052;SDS011;38934;52.690;6.184;2023-12-14T14:25:10;15.57;;;9.63;;
53052;SDS011;38934;52.690;6.184;2023-12-14T14:27:36;17.95;;;9.63;;
53052;SDS011;38934;52.690;6.184;2023-12-14T14:30:03;19.45;;;9.93;;
53052;SDS011;38934;52.690;6.184;2023-12-14T14:32:29;14.52;;;9.50;;
53052;SDS011;38934;52.690;6.184;2023-12-14T14:34:56;16.27;;;9.70;;
53052;SDS011;38934;52.690;6.184;2023-12-14T14:37:23;15.65;;;9.23;;
53052;SDS011;38934;52.690;6.184;2023-12-14T14:39:50;14.55;;;8.60;;